createdAt,value
2022-10-31T00:01:42.460Z,4.80
2022-10-31T00:05:24.389Z,3.85
2022-10-31T00:09:06.481Z,3.15
2022-10-31T00:12:48.295Z,3.55
2022-10-31T00:16:31.220Z,3.00
2022-10-31T00:20:12.970Z,3.00
2022-10-31T00:23:54.809Z,3.00
2022-10-31T00:27:36.555Z,3.25
2022-10-31T00:31:18.419Z,4.07
2022-10-31T00:35:00.219Z,3.33
2022-10-31T00:38:43.278Z,2.90
2022-10-31T00:42:25.094Z,2.50
2022-10-31T00:46:06.886Z,3.13
2022-10-31T00:49:48.659Z,3.97
2022-10-31T00:53:30.459Z,2.50
2022-10-31T00:57:12.243Z,2.63
2022-10-31T01:00:57.326Z,3.67
2022-10-31T01:04:39.234Z,3.28
2022-10-31T01:08:21.001Z,3.55
2022-10-31T01:12:02.822Z,2.67
2022-10-31T01:15:44.611Z,2.83
2022-10-31T01:19:26.395Z,3.00
2022-10-31T01:23:08.149Z,2.88
2022-10-31T01:26:50.042Z,3.05
2022-10-31T01:30:32.713Z,2.88
2022-10-31T01:34:16.914Z,2.85
2022-10-31T01:37:58.721Z,3.78
2022-10-31T01:41:46.311Z,2.90
2022-10-31T01:45:28.090Z,3.97
2022-10-31T01:49:17.933Z,3.55
2022-10-31T01:53:01.894Z,3.30
2022-10-31T01:56:53.933Z,3.25
2022-10-31T02:00:35.860Z,3.45
2022-10-31T02:04:19.689Z,2.70
2022-10-31T02:08:14.709Z,3.42
2022-10-31T02:11:58.782Z,3.67
2022-10-31T02:15:41.995Z,2.83
2022-10-31T02:20:05.265Z,3.83
2022-10-31T02:24:20.672Z,3.42
2022-10-31T02:28:40.214Z,2.97
2022-10-31T02:32:33.083Z,3.63
2022-10-31T02:36:22.873Z,2.22
2022-10-31T02:40:27.867Z,2.75
2022-10-31T02:44:40.763Z,3.42
2022-10-31T02:48:28.888Z,2.60
2022-10-31T02:52:22.729Z,3.00
2022-10-31T02:56:19.225Z,2.60
2022-10-31T03:00:07.253Z,3.33
2022-10-31T03:04:04.102Z,3.00
2022-10-31T03:11:58.076Z,2.72
2022-10-31T03:15:46.385Z,2.80
2022-10-31T03:19:33.391Z,4.13
2022-10-31T03:27:00.803Z,3.40
2022-10-31T03:30:45.338Z,3.30
2022-10-31T03:34:29.277Z,3.15
2022-10-31T03:38:12.214Z,3.55
2022-10-31T03:42:08.598Z,3.75
2022-10-31T03:45:50.566Z,3.53
2022-10-31T03:49:33.828Z,2.80
2022-10-31T03:53:33.915Z,2.67
2022-10-31T03:57:26.303Z,2.65
2022-10-31T04:01:12.560Z,2.80
2022-10-31T04:04:55.025Z,3.72
2022-10-31T04:08:45.381Z,2.70
2022-10-31T04:12:30.554Z,3.35
2022-10-31T04:16:17.006Z,2.38
2022-10-31T04:20:02.522Z,3.13
2022-10-31T04:23:44.333Z,3.42
2022-10-31T04:27:26.493Z,2.63
2022-10-31T04:31:11.625Z,3.65
2022-10-31T04:34:53.427Z,3.30
2022-10-31T04:38:35.412Z,2.78
2022-10-31T04:42:17.212Z,3.10
2022-10-31T04:45:59.031Z,3.95
2022-10-31T04:49:40.887Z,3.53
2022-10-31T04:53:22.729Z,2.75
2022-10-31T04:57:04.517Z,2.80
2022-10-31T05:00:46.387Z,3.65
2022-10-31T05:04:28.283Z,3.25
2022-10-31T05:08:10.043Z,2.60
2022-10-31T05:11:51.801Z,2.80
2022-10-31T05:15:33.744Z,3.33
2022-10-31T05:19:15.626Z,4.00
2022-10-31T05:22:58.646Z,3.33
2022-10-31T05:26:40.503Z,3.10
2022-10-31T05:30:25.461Z,2.63
2022-10-31T05:34:07.250Z,3.20
2022-10-31T05:37:49.115Z,4.07
2022-10-31T05:41:30.927Z,2.75
2022-10-31T05:45:15.364Z,3.22
2022-10-31T05:49:00.202Z,3.13
2022-10-31T05:52:44.547Z,2.90
2022-10-31T05:56:26.319Z,3.05
2022-10-31T06:00:08.871Z,2.97
2022-10-31T06:03:50.751Z,2.45
2022-10-31T06:07:36.386Z,2.45
2022-10-31T06:11:18.268Z,2.53
2022-10-31T06:15:00.033Z,3.13
2022-10-31T06:18:41.880Z,2.55
2022-10-31T06:22:23.821Z,2.75
2022-10-31T06:26:05.771Z,2.97
2022-10-31T06:29:48.052Z,2.83
2022-10-31T06:33:29.919Z,2.92
2022-10-31T06:37:13.224Z,3.88
2022-10-31T06:40:55.534Z,2.60
2022-10-31T06:44:37.293Z,2.85
2022-10-31T06:48:19.108Z,2.60
2022-10-31T06:52:00.953Z,2.88
2022-10-31T06:55:43.546Z,3.45
2022-10-31T06:59:25.462Z,2.60
2022-10-31T07:03:11.926Z,3.33
2022-10-31T07:06:53.885Z,2.38
2022-10-31T07:10:40.203Z,3.08
2022-10-31T07:18:06.544Z,3.22
2022-10-31T07:21:48.334Z,2.55
2022-10-31T07:25:30.305Z,2.88
2022-10-31T07:29:12.168Z,3.08
2022-10-31T07:32:54.284Z,2.40
2022-10-31T07:36:36.124Z,2.05
2022-10-31T07:40:18.970Z,2.95
2022-10-31T07:44:00.778Z,2.38
2022-10-31T07:47:47.404Z,2.95
2022-10-31T07:51:29.226Z,3.05
2022-10-31T07:55:11.848Z,3.05
2022-10-31T07:58:53.689Z,2.50
2022-10-31T08:02:35.674Z,2.42
2022-10-31T08:06:17.484Z,2.97
2022-10-31T08:09:59.325Z,3.60
2022-10-31T08:13:41.270Z,2.67
2022-10-31T08:17:23.062Z,3.38
2022-10-31T08:21:04.881Z,2.55
2022-10-31T08:24:46.678Z,2.95
2022-10-31T08:28:28.489Z,2.58
2022-10-31T08:32:10.267Z,3.05
2022-10-31T08:35:52.054Z,2.78
2022-10-31T08:39:33.855Z,2.40
2022-10-31T08:43:17.199Z,2.55
2022-10-31T08:46:58.983Z,3.13
2022-10-31T08:50:42.026Z,3.67
2022-10-31T08:54:23.824Z,2.85
2022-10-31T08:58:07.672Z,2.78
2022-10-31T09:01:50.891Z,2.65
2022-10-31T09:05:33.623Z,2.17
2022-10-31T09:09:15.484Z,2.58
2022-10-31T09:13:11.663Z,2.53
2022-10-31T09:16:53.715Z,2.42
2022-10-31T09:20:36.881Z,2.50
2022-10-31T09:24:18.657Z,2.90
2022-10-31T09:28:02.303Z,2.30
2022-10-31T09:31:45.217Z,2.33
2022-10-31T09:35:27.997Z,2.35
2022-10-31T09:39:09.943Z,2.00
2022-10-31T09:43:05.282Z,2.42
2022-10-31T09:47:06.213Z,1.98
2022-10-31T09:50:59.680Z,2.80
2022-10-31T09:54:53.581Z,7.82
2022-10-31T09:58:44.183Z,4.05
2022-10-31T10:02:44.331Z,4.88
2022-10-31T10:06:30.037Z,5.32
2022-10-31T10:10:35.496Z,2.08
2022-10-31T10:14:20.229Z,2.67
2022-10-31T10:18:29.153Z,2.40
2022-10-31T10:22:25.655Z,2.63
2022-10-31T10:26:37.750Z,1.55
2022-10-31T10:30:29.485Z,2.05
2022-10-31T10:34:35.723Z,1.67
2022-10-31T10:38:26.577Z,1.75
2022-10-31T10:42:34.311Z,3.38
2022-10-31T10:46:46.002Z,5.90
2022-10-31T10:50:37.028Z,4.03
2022-10-31T10:54:27.925Z,4.10
2022-10-31T10:58:11.458Z,2.00
2022-10-31T11:01:53.706Z,1.73
2022-10-31T11:05:43.767Z,1.27
2022-10-31T11:09:25.579Z,1.73
2022-10-31T11:13:22.505Z,1.35
2022-10-31T11:17:28.999Z,1.45
2022-10-31T11:21:28.356Z,1.27
2022-10-31T11:25:28.321Z,2.05
2022-10-31T11:29:26.477Z,1.50
2022-10-31T11:33:32.538Z,1.33
2022-10-31T11:37:18.094Z,1.40
2022-10-31T11:41:11.700Z,1.42
2022-10-31T11:44:54.820Z,1.58
2022-10-31T11:48:37.698Z,1.05
2022-10-31T11:52:26.509Z,1.35
2022-10-31T11:56:16.814Z,1.58
2022-10-31T12:00:01.002Z,1.25
2022-10-31T12:04:00.749Z,1.20
2022-10-31T12:07:43.601Z,0.90
2022-10-31T12:11:31.222Z,1.58
2022-10-31T12:15:18.944Z,1.00
2022-10-31T12:19:22.727Z,1.00
2022-10-31T12:23:22.930Z,1.20
2022-10-31T12:27:07.413Z,0.93
2022-10-31T12:31:40.228Z,1.20
2022-10-31T12:35:28.210Z,1.08
2022-10-31T12:39:25.789Z,0.77
2022-10-31T12:43:45.241Z,0.95
2022-10-31T12:48:17.791Z,1.33
2022-10-31T12:52:11.569Z,1.17
2022-10-31T12:55:53.323Z,1.10
2022-10-31T12:59:46.027Z,0.98
2022-10-31T13:04:00.092Z,1.48
2022-10-31T13:07:47.273Z,1.00
2022-10-31T13:11:46.344Z,1.13
2022-10-31T13:15:33.959Z,0.90
2022-10-31T13:19:18.169Z,1.20
2022-10-31T13:23:49.055Z,1.23
2022-10-31T13:27:27.867Z,0.73
2022-10-31T13:31:10.045Z,1.15
2022-10-31T13:34:56.605Z,0.80
2022-10-31T13:38:58.651Z,0.60
2022-10-31T13:43:20.605Z,1.20
2022-10-31T13:47:02.423Z,1.10
2022-10-31T13:50:56.617Z,1.67
2022-10-31T13:54:47.509Z,1.13
2022-10-31T13:58:31.387Z,1.00
2022-10-31T14:02:19.018Z,1.08
2022-10-31T14:06:01.335Z,1.08
2022-10-31T14:10:06.703Z,0.93
2022-10-31T14:13:48.519Z,0.93
2022-10-31T14:17:36.243Z,1.00
2022-10-31T14:21:23.821Z,1.33
2022-10-31T14:25:27.557Z,1.48
2022-10-31T14:29:15.388Z,1.33
2022-10-31T14:33:03.216Z,1.40
2022-10-31T14:37:00.080Z,0.90
2022-10-31T14:40:53.237Z,0.77
2022-10-31T14:44:44.172Z,0.80
2022-10-31T14:48:54.101Z,1.25
2022-10-31T14:52:38.235Z,0.82
2022-10-31T14:56:35.416Z,0.95
2022-10-31T15:00:22.617Z,1.25
2022-10-31T15:04:25.058Z,1.10
2022-10-31T15:08:26.466Z,1.33
2022-10-31T15:12:26.304Z,1.25
2022-10-31T15:16:11.556Z,1.23
2022-10-31T15:19:54.308Z,1.30
2022-10-31T15:23:36.578Z,1.15
2022-10-31T15:27:19.274Z,1.38
2022-10-31T15:31:02.893Z,0.82
2022-10-31T15:34:45.536Z,1.33
2022-10-31T15:38:29.046Z,1.40
2022-10-31T15:42:21.929Z,1.17
2022-10-31T15:46:05.185Z,1.58
2022-10-31T15:49:55.464Z,1.52
2022-10-31T15:53:44.696Z,1.70
2022-10-31T15:57:29.602Z,2.00
2022-10-31T16:01:31.440Z,1.52
2022-10-31T16:05:19.205Z,1.42
2022-10-31T16:09:01.517Z,2.13
2022-10-31T16:12:46.280Z,1.40
2022-10-31T16:16:35.244Z,1.65
2022-10-31T16:20:29.960Z,1.42
2022-10-31T16:24:23.712Z,1.23
2022-10-31T16:32:02.148Z,1.80
2022-10-31T16:35:43.938Z,2.08
2022-10-31T16:39:25.735Z,1.50
2022-10-31T16:43:13.184Z,1.95
2022-10-31T16:47:14.794Z,1.60
2022-10-31T16:50:56.747Z,1.60
2022-10-31T16:54:38.619Z,1.33
2022-10-31T16:58:30.793Z,2.00
2022-10-31T17:02:16.754Z,1.90
2022-10-31T17:05:58.605Z,1.57
2022-10-31T17:09:40.388Z,2.08
2022-10-31T17:13:25.737Z,2.03
2022-10-31T17:17:09.022Z,2.17
2022-10-31T17:20:51.651Z,2.22
2022-10-31T17:24:33.423Z,2.17
2022-10-31T17:28:15.466Z,2.42
2022-10-31T17:32:01.340Z,2.08
2022-10-31T17:35:45.026Z,1.70
2022-10-31T17:39:27.171Z,2.22
2022-10-31T17:43:10.752Z,2.13
2022-10-31T17:46:52.617Z,2.35
2022-10-31T17:50:34.651Z,2.08
2022-10-31T17:54:19.047Z,2.58
2022-10-31T17:58:00.809Z,2.13
2022-10-31T18:01:42.774Z,2.13
2022-10-31T18:05:24.851Z,2.35
2022-10-31T18:09:07.176Z,1.98
2022-10-31T18:12:49.003Z,2.40
2022-10-31T18:16:30.924Z,2.20
2022-10-31T18:20:13.080Z,2.70
2022-10-31T18:24:02.963Z,3.05
2022-10-31T18:27:44.756Z,2.40
2022-10-31T18:31:26.798Z,1.88
2022-10-31T18:35:08.879Z,2.40
2022-10-31T18:38:50.791Z,2.85
2022-10-31T18:42:32.597Z,3.10
2022-10-31T18:46:15.978Z,3.30
2022-10-31T18:49:57.816Z,3.70
2022-10-31T18:53:39.843Z,4.93
2022-10-31T18:57:21.669Z,5.30
2022-10-31T19:01:11.908Z,5.82
2022-10-31T19:04:53.745Z,6.30
2022-10-31T19:08:36.417Z,7.55
2022-10-31T19:12:18.180Z,7.32
2022-10-31T19:16:14.758Z,8.43
2022-10-31T19:19:56.622Z,8.30
2022-10-31T19:23:39.131Z,8.13
2022-10-31T19:27:20.933Z,8.82
2022-10-31T19:31:03.731Z,8.63
2022-10-31T19:34:45.574Z,8.13
2022-10-31T19:38:29.051Z,8.90
2022-10-31T19:42:11.017Z,8.68
2022-10-31T19:45:57.487Z,8.30
2022-10-31T19:49:39.258Z,9.40
2022-10-31T19:53:21.299Z,8.70
2022-10-31T19:57:03.053Z,9.00
2022-10-31T20:00:44.939Z,9.32
2022-10-31T20:04:26.969Z,7.93
2022-10-31T20:08:15.678Z,8.23
2022-10-31T20:11:57.575Z,8.38
2022-10-31T20:15:39.415Z,8.13
2022-10-31T20:19:21.520Z,8.32
2022-10-31T20:23:03.856Z,8.45
2022-10-31T20:26:46.161Z,7.13
2022-10-31T20:30:29.504Z,8.43
2022-10-31T20:34:11.791Z,7.97
2022-10-31T20:37:53.660Z,7.18
2022-10-31T20:41:39.514Z,7.35
2022-10-31T20:45:21.353Z,6.43
2022-10-31T20:49:03.850Z,6.43
2022-10-31T20:52:45.682Z,6.95
2022-10-31T20:56:28.874Z,5.70
2022-10-31T21:00:11.989Z,5.35
2022-10-31T21:03:54.130Z,4.22
2022-10-31T21:07:36.332Z,3.13
2022-10-31T21:11:21.775Z,2.60
2022-10-31T21:15:03.961Z,2.75
2022-10-31T21:18:47.071Z,2.10
2022-10-31T21:22:29.471Z,1.63
2022-10-31T21:26:17.710Z,1.65
2022-10-31T21:29:59.875Z,1.40
2022-10-31T21:33:42.984Z,1.42
2022-10-31T21:37:24.956Z,1.38
2022-10-31T21:41:08.125Z,1.50
2022-10-31T21:44:50.633Z,2.40
2022-10-31T21:48:33.202Z,1.77
2022-10-31T21:52:15.026Z,1.63
2022-10-31T21:56:01.773Z,1.60
2022-10-31T21:59:48.489Z,2.05
2022-10-31T22:03:30.351Z,1.88
2022-10-31T22:07:12.163Z,1.40
2022-10-31T22:10:53.969Z,1.75
2022-10-31T22:14:35.801Z,1.83
2022-10-31T22:18:17.588Z,1.88
2022-10-31T22:21:59.564Z,1.95
2022-10-31T22:25:41.635Z,1.98
2022-10-31T22:29:23.725Z,1.70
2022-10-31T22:33:05.695Z,3.17
2022-10-31T22:36:47.634Z,2.20
2022-10-31T22:40:29.461Z,1.40
2022-10-31T22:44:11.505Z,2.25
2022-10-31T22:47:53.306Z,2.22
2022-10-31T22:51:37.977Z,1.27
2022-10-31T22:55:19.825Z,1.05
2022-10-31T22:59:02.535Z,1.85
2022-10-31T23:02:44.351Z,1.92
2022-10-31T23:06:30.180Z,1.88
2022-10-31T23:10:12.172Z,1.73
2022-10-31T23:14:15.776Z,1.38
2022-10-31T23:17:57.776Z,2.05
2022-10-31T23:22:04.646Z,1.92
2022-10-31T23:29:49.815Z,0.88
2022-10-31T23:33:31.695Z,2.15
2022-10-31T23:37:14.853Z,1.13
2022-10-31T23:40:56.668Z,0.68
2022-10-31T23:44:39.664Z,1.35
2022-10-31T23:48:21.682Z,1.20
2022-10-31T23:52:04.481Z,1.42
2022-10-31T23:55:46.431Z,0.63
2022-10-31T23:59:31.636Z,1.10
